AirNav   Duncan Aviation - Near you to keep you flying
 
 713 users online  

7IN9 The Last Resort Airport
Springport, Indiana, USA

GOING TO SPRINGPORT?


FAA INFORMATION EFFECTIVE 11 AUGUST 2022

Location

FAA Identifier: 7IN9
Lat/Long: 40-02-15.0000N 085-24-38.0000W
40-02.250000N 085-24.633333W
40.0375000,-85.4105556
(estimated)
Elevation: 1070 ft. / 326 m (estimated)
From city: 10 miles SW of SPRINGPORT, IN
Time zone: UTC -4 (UTC -5 during Standard Time)
Zip code: 47386

Airport Operations

Airport use: Private use. Permission required prior to landing
Activation date: 02/2003
Control tower: no
ARTCC: INDIANAPOLIS CENTER
FSS: TERRE HAUTE FLIGHT SERVICE STATION
Attendance: UNATNDD
Segmented circle: no

Airport Communications

WX AWOS-3 at AID (10 nm NW): 128.55 (765-442-1245)
WX ASOS at MIE (12 nm N): 114.4 (765-288-9617)

Nearby radio navigation aids

VOR radial/distance  VOR name  Freq  Var
MIEr187/12.0MUNCIE VOR/DME114.4003W
MZZr159/30.0MARION VOR/DME108.6003W
SHBr037/30.9SHELBYVILLE VOR/DME116.1501E

 
NDB name  Hdg/Dist  Freq  Var  ID
VIDEO116/5.039403WAI .- ..
BALLL209/9.536503WJN .--- -.
NEW CASTLE342/10.438506WUWL ..- .-- .-..
METROPOLITAN081/30.033803WUMP ..- -- .--.

Airport Services

Fuel available: UL94

Runway Information

Runway 18/36

Dimensions: 2100 x 75 ft. / 640 x 23 m
Surface: turf
RUNWAY 18  RUNWAY 36
Traffic pattern: leftleft

Airport Ownership and Management from official FAA records

Ownership: Privately-owned
Owner: GARRY WILSON
7406 NORTH 100 WEST
SPRINGPORT, IN 47386
Phone 756-755-3444
Manager: GARRY WILSON
7406 NORTH 100 WEST
SPRINGPORT, IN 47386
Phone 756-755-3444

Airport Operational Statistics

Aircraft based on the field: 2
Single engine airplanes: 2
    

Additional Remarks

20 FT TREES 230 FT EAST OF RY.
FOR CD CTC INDIANAPOLIS APCH AT 317-227-5743.

Instrument Procedures

There are no published instrument procedures at 7IN9.

Some nearby airports with instrument procedures:

KAID - Anderson Municipal Airport-Darlington Field (10 nm NW)
KUWL - New Castle Henry County Airport / Marlatt Field (10 nm S)
KMIE - Delaware County Regional Airport (12 nm N)
I22 - Randolph County Airport (23 nm E)
KCEV - Mettel Field Airport (24 nm SE)
 
Loc | Ops | Rwys | IFR | FBO | Links
Com | Nav | Svcs | Stats | Notes
Area around 7IN9 (The Last Resort Airport)
 
Road maps at: MapQuest Bing Google
 
Aerial photo
WARNING: Photo may not be current or correct
Aerial photo of 7IN9 (The Last Resort Airport)
Do you have a better or more recent aerial photo of The Last Resort Airport that you would like to share? If so, please send us your photo.

 
Sectional chart

 
Airport distance calculator
Flying to The Last Resort Airport? Find the distance to fly.

From to 7IN9

Sunrise and sunset
Times for 17-Aug-2022
 Local
(UTC-4)
 Zulu
(UTC)
Morning civil twilight06:2710:27
Sunrise06:5610:56
Sunset20:3500:35
Evening civil twilight21:0401:04

Current date and time
Zulu (UTC)  17-Aug-2022 06:07:33
Local (UTC-4)  17-Aug-2022 02:07:33
 
METAR
KAID 
11nm NW 
170555Z AUTO 00000KT 10SM CLR 18/14 A3008 RMK AO2 T01770140 10242 20175 402680151
KMIE 
12nm N 
170553Z AUTO 03004KT 10SM CLR 16/14 A3007 RMK AO2 SLP173 T01610139 10233 20161 50001
TAF
KIND 
45nm SW 
170220Z 1702/1806 03008KT P6SM FEW060= TAF AMD KCKB 170222Z 1702/1724 VRB03KT 2SM BR BKN030 TEMPO 1702/1703 1/4SM FG BKN001 FM170300 00000KT 1/4SM FG BKN001 FM171300 VRB04KT 3SM BR BKN030 FM171500 02004KT P6SM BKN090
KGUS 
49nm NW 
162100Z 1621/1803 05012G18KT 9999 FEW060 SCT250 QNH3006INS BECMG 1623/1624 VRB06KT 9999 FEW060 SCT250 QNH3006INS TX27/1621Z TN13/1711Z LAST NO AMDS AFT 1703 NEXT 1713
NOTAMs
Click for the latest NOTAMs
NOTAMs are issued by the DoD/FAA and will open in a separate window not controlled by AirNav.

 

 
 

Would you like to see your business listed on this page?

 If your business provides an interesting product or service to pilots, flight crews, aircraft, or users of the The Last Resort Airport, you should consider listing it here.  To start the listing process, click on the button below
 
Add a business
 

Other Pages about The Last Resort Airport

Update a link
 
Copyright © AirNav, LLC. All rights reserved. Privacy Policy  Contact